createdAt,value
2022-09-23T00:01:02.029Z,100004.63
2022-09-23T00:03:29.894Z,100001.03
2022-09-23T00:05:59.930Z,100010.00
2022-09-23T00:08:26.519Z,99991.84
2022-09-23T00:10:55.237Z,100004.28
2022-09-23T00:13:21.780Z,100001.88
2022-09-23T00:15:48.348Z,100009.34
2022-09-23T00:18:14.854Z,100006.88
2022-09-23T00:20:41.321Z,100008.03
2022-09-23T00:23:07.791Z,100009.34
2022-09-23T00:25:34.270Z,100000.25
2022-09-23T00:28:02.299Z,100002.03
2022-09-23T00:30:28.993Z,99999.28
2022-09-23T00:32:55.579Z,99988.69
2022-09-23T00:35:25.175Z,99985.69
2022-09-23T00:37:51.839Z,99992.47
2022-09-23T00:40:18.649Z,99990.47
2022-09-23T00:42:46.292Z,99988.56
2022-09-23T00:45:15.447Z,99987.47
2022-09-23T00:47:46.244Z,99984.44
2022-09-23T00:50:18.716Z,99986.56
2022-09-23T00:52:45.435Z,99981.78
2022-09-23T00:55:17.630Z,99981.47
2022-09-23T00:57:46.554Z,99979.38
2022-09-23T01:00:14.771Z,99979.19
2022-09-23T01:02:41.257Z,99984.22
2022-09-23T01:05:09.130Z,99972.19
2022-09-23T01:07:35.615Z,99972.09
2022-09-23T01:10:06.549Z,99963.13
2022-09-23T01:12:53.370Z,99960.53
2022-09-23T01:15:25.606Z,99976.34
2022-09-23T01:18:03.171Z,99971.22
2022-09-23T01:20:59.770Z,99968.59
2022-09-23T01:24:00.989Z,99973.97
2022-09-23T01:26:48.664Z,99963.03
2022-09-23T01:29:42.931Z,99959.44
2022-09-23T01:32:16.713Z,99956.63
2022-09-23T01:34:57.093Z,99962.47
2022-09-23T01:37:31.297Z,99959.28
2022-09-23T01:40:06.985Z,99956.78
2022-09-23T01:42:37.595Z,99952.72
2022-09-23T01:45:10.233Z,99946.63
2022-09-23T01:47:43.301Z,99947.63
2022-09-23T01:50:14.678Z,99953.88
2022-09-23T01:52:45.862Z,99952.41
2022-09-23T01:55:16.191Z,99956.00
2022-09-23T01:57:49.036Z,99954.50
2022-09-23T02:00:17.899Z,99948.19
2022-09-23T02:02:49.476Z,99957.25
2022-09-23T02:05:21.832Z,99944.44
2022-09-23T02:07:55.379Z,99950.78
2022-09-23T02:10:27.241Z,99945.53
2022-09-23T02:13:00.368Z,99948.91
2022-09-23T02:15:32.863Z,99939.84
2022-09-23T02:18:05.136Z,99942.06
2022-09-23T02:20:36.608Z,99939.84
2022-09-23T02:23:06.950Z,99944.03
2022-09-23T02:25:40.587Z,99939.22
2022-09-23T02:28:13.674Z,99938.28
2022-09-23T02:30:46.658Z,99928.84
2022-09-23T02:33:21.033Z,99924.50
2022-09-23T02:35:53.716Z,99917.72
2022-09-23T02:38:29.106Z,99913.91
2022-09-23T02:41:03.565Z,99914.00
2022-09-23T02:43:36.379Z,99908.25
2022-09-23T02:46:04.001Z,99908.13
2022-09-23T02:48:36.135Z,99913.13
2022-09-23T02:51:02.780Z,99916.69
2022-09-23T02:53:33.274Z,99906.25
2022-09-23T02:56:00.032Z,99909.75
2022-09-23T02:58:26.822Z,99908.13
2022-09-23T03:01:01.930Z,99900.16
2022-09-23T03:03:41.675Z,99899.38
2022-09-23T03:06:15.295Z,99904.97
2022-09-23T03:08:47.560Z,99900.72
2022-09-23T03:11:15.165Z,99895.78
2022-09-23T03:13:53.994Z,99898.19
2022-09-23T03:16:29.948Z,99898.28
2022-09-23T03:19:07.999Z,99895.03
2022-09-23T03:21:40.922Z,99892.41
2022-09-23T03:24:10.671Z,99902.03
2022-09-23T03:26:40.200Z,99887.41
2022-09-23T03:29:09.668Z,99893.66
2022-09-23T03:31:37.764Z,99888.59
2022-09-23T03:34:12.969Z,99893.78
2022-09-23T03:36:46.108Z,99883.84
2022-09-23T03:39:20.070Z,99883.59
2022-09-23T03:41:52.353Z,99886.38
2022-09-23T03:44:20.611Z,99883.75
2022-09-23T03:46:47.096Z,99890.34
2022-09-23T03:49:17.471Z,99887.59
2022-09-23T03:51:44.835Z,99892.38
2022-09-23T03:54:11.803Z,99884.66
2022-09-23T03:56:38.298Z,99885.28
2022-09-23T03:59:05.156Z,99878.06
2022-09-23T04:01:31.658Z,99867.91
2022-09-23T04:03:58.177Z,99883.66
2022-09-23T04:06:26.078Z,99879.28
2022-09-23T04:08:52.532Z,99877.31
2022-09-23T04:11:19.006Z,99876.31
2022-09-23T04:13:45.493Z,99873.03
2022-09-23T04:16:11.986Z,99863.31
2022-09-23T04:18:38.472Z,99863.31
2022-09-23T04:21:05.186Z,99859.38
2022-09-23T04:23:33.041Z,99863.53
2022-09-23T04:25:59.511Z,99855.56
2022-09-23T04:28:25.969Z,99852.38
2022-09-23T04:30:52.508Z,99851.97
2022-09-23T04:33:18.995Z,99854.56
2022-09-23T04:35:50.187Z,99844.00
2022-09-23T04:38:16.729Z,99840.09
2022-09-23T04:40:45.182Z,99839.00
2022-09-23T04:43:13.527Z,99839.19
2022-09-23T04:45:40.163Z,99840.81
2022-09-23T04:48:06.641Z,99838.31
2022-09-23T04:50:33.433Z,99836.91
2022-09-23T04:52:59.925Z,99838.88
2022-09-23T04:55:26.413Z,99836.69
2022-09-23T04:57:57.385Z,99829.16
2022-09-23T05:00:24.154Z,99830.25
2022-09-23T05:02:50.683Z,99833.09
2022-09-23T05:05:18.231Z,99830.38
2022-09-23T05:07:44.714Z,99820.03
2022-09-23T05:10:11.215Z,99825.91
2022-09-23T05:12:37.675Z,99826.88
2022-09-23T05:15:06.190Z,99838.22
2022-09-23T05:17:32.674Z,99828.84
2022-09-23T05:19:59.462Z,99838.59
2022-09-23T05:22:26.310Z,99835.41
2022-09-23T05:24:53.119Z,99840.53
2022-09-23T05:27:19.942Z,99835.28
2022-09-23T05:29:46.452Z,99834.50
2022-09-23T05:32:14.623Z,99831.44
2022-09-23T05:34:41.689Z,99836.25
2022-09-23T05:37:08.183Z,99838.81
2022-09-23T05:39:34.714Z,99838.38
2022-09-23T05:42:01.199Z,99831.47
2022-09-23T05:44:27.703Z,99832.75
2022-09-23T05:46:54.206Z,99828.78
2022-09-23T05:49:33.047Z,99839.16
2022-09-23T05:52:08.834Z,99835.16
2022-09-23T05:54:36.433Z,99835.78
2022-09-23T05:57:06.197Z,99845.38
2022-09-23T05:59:32.720Z,99838.47
2022-09-23T06:01:59.329Z,99835.81
2022-09-23T06:04:27.330Z,99837.16
2022-09-23T06:06:53.789Z,99833.44
2022-09-23T06:09:20.271Z,99833.78
2022-09-23T06:11:46.777Z,99831.66
2022-09-23T06:14:13.805Z,99836.53
2022-09-23T06:16:40.264Z,99830.78
2022-09-23T06:19:07.109Z,99834.88
2022-09-23T06:21:37.863Z,99835.22
2022-09-23T06:24:05.767Z,99833.38
2022-09-23T06:26:32.675Z,99835.19
2022-09-23T06:28:59.649Z,99830.78
2022-09-23T06:31:26.567Z,99833.66
2022-09-23T06:34:04.315Z,99834.56
2022-09-23T06:36:43.187Z,99829.06
2022-09-23T06:39:10.796Z,99823.81
2022-09-23T06:41:37.298Z,99825.47
2022-09-23T06:44:03.892Z,99820.50
2022-09-23T06:46:30.417Z,99824.66
2022-09-23T06:48:58.454Z,99822.31
2022-09-23T06:51:24.911Z,99825.78
2022-09-23T06:53:52.778Z,99822.59
2022-09-23T06:56:19.554Z,99820.16
2022-09-23T06:58:46.032Z,99820.25
2022-09-23T07:01:15.797Z,99828.44
2022-09-23T07:03:42.960Z,99821.97
2022-09-23T07:06:09.482Z,99827.00
2022-09-23T07:08:36.404Z,99821.06
2022-09-23T07:11:06.586Z,99825.88
2022-09-23T07:13:33.922Z,99821.28
2022-09-23T07:16:01.312Z,99815.97
2022-09-23T07:18:35.576Z,99817.25
2022-09-23T07:21:08.649Z,99821.97
2022-09-23T07:23:35.176Z,99825.56
2022-09-23T07:26:01.654Z,99822.28
2022-09-23T07:28:29.601Z,99830.91
2022-09-23T07:31:00.260Z,99821.22
2022-09-23T07:33:32.272Z,99831.31
2022-09-23T07:35:59.753Z,99828.06
2022-09-23T07:38:26.454Z,99835.97
2022-09-23T07:40:52.934Z,99838.72
2022-09-23T07:43:19.461Z,99832.09
2022-09-23T07:45:47.304Z,99829.41
2022-09-23T07:48:13.809Z,99837.22
2022-09-23T07:50:40.355Z,99834.53
2022-09-23T07:53:06.959Z,99836.09
2022-09-23T07:55:33.424Z,99839.19
2022-09-23T07:57:59.915Z,99837.28
2022-09-23T08:00:26.389Z,99840.34
2022-09-23T08:03:00.278Z,99831.72
2022-09-23T08:05:26.895Z,99843.50
2022-09-23T08:07:53.427Z,99835.53
2022-09-23T08:10:19.942Z,99840.91
2022-09-23T08:12:46.927Z,99833.41
2022-09-23T08:15:13.499Z,99830.31
2022-09-23T08:17:39.989Z,99841.19
2022-09-23T08:20:09.172Z,99837.50
2022-09-23T08:22:35.687Z,99842.06
2022-09-23T08:25:02.185Z,99836.09
2022-09-23T08:27:28.675Z,99837.03
2022-09-23T08:29:55.182Z,99842.50
2022-09-23T08:32:21.661Z,99830.03
2022-09-23T08:34:48.170Z,99831.06
2022-09-23T08:37:16.007Z,99827.13
2022-09-23T08:39:42.547Z,99824.72
2022-09-23T08:42:17.152Z,99821.41
2022-09-23T08:44:49.226Z,99824.53
2022-09-23T08:47:20.907Z,99826.47
2022-09-23T08:49:55.550Z,99811.81
2022-09-23T08:52:31.874Z,99816.53
2022-09-23T08:54:58.404Z,99818.09
2022-09-23T08:57:36.727Z,99811.88
2022-09-23T09:00:04.473Z,99823.50
2022-09-23T09:02:35.410Z,99817.47
2022-09-23T09:05:06.349Z,99827.97
2022-09-23T09:07:37.366Z,99822.94
2022-09-23T09:10:10.433Z,99819.34
2022-09-23T09:12:41.355Z,99819.47
2022-09-23T09:15:13.195Z,99814.97
2022-09-23T09:17:47.091Z,99818.44
2022-09-23T09:20:22.867Z,99819.34
2022-09-23T09:22:53.972Z,99820.06
2022-09-23T09:25:33.509Z,99817.81
2022-09-23T09:28:03.113Z,99818.78
2022-09-23T09:30:31.072Z,99809.59
2022-09-23T09:33:02.862Z,99811.34
2022-09-23T09:35:37.559Z,99813.38
2022-09-23T09:38:05.460Z,99810.47
2022-09-23T09:40:33.275Z,99804.66
2022-09-23T09:43:01.233Z,99811.03
2022-09-23T09:45:43.711Z,99802.72
2022-09-23T09:48:15.315Z,99798.22
2022-09-23T09:50:47.829Z,99803.56
2022-09-23T09:53:21.077Z,99789.56
2022-09-23T09:56:03.751Z,99780.03
2022-09-23T09:58:39.945Z,99794.56
2022-09-23T10:01:07.150Z,99786.56
2022-09-23T10:03:38.926Z,99795.25
2022-09-23T10:06:15.367Z,99786.34
2022-09-23T10:08:48.859Z,99791.47
2022-09-23T10:11:17.209Z,99789.13
2022-09-23T10:14:02.719Z,99784.75
2022-09-23T10:16:30.931Z,99783.53
2022-09-23T10:18:59.647Z,99780.75
2022-09-23T10:21:33.696Z,99787.84
2022-09-23T10:24:05.110Z,99781.78
2022-09-23T10:26:33.413Z,99788.41
2022-09-23T10:29:02.534Z,99780.00
2022-09-23T10:31:30.760Z,99782.38
2022-09-23T10:33:59.312Z,99780.81
2022-09-23T10:36:27.104Z,99786.59
2022-09-23T10:38:56.715Z,99781.97
2022-09-23T10:41:37.533Z,99786.19
2022-09-23T10:44:20.881Z,99780.41
2022-09-23T10:46:57.460Z,99769.53
2022-09-23T10:50:08.624Z,99773.38
2022-09-23T10:52:48.950Z,99767.56
2022-09-23T10:55:29.095Z,99768.81
2022-09-23T10:58:11.392Z,99762.97
2022-09-23T11:00:47.131Z,99766.19
2022-09-23T11:03:42.675Z,99758.13
2022-09-23T11:06:19.235Z,99755.34
2022-09-23T11:09:14.132Z,99754.31
2022-09-23T11:11:54.935Z,99758.38
2022-09-23T11:14:34.168Z,99757.69
2022-09-23T11:17:15.145Z,99754.84
2022-09-23T11:20:00.390Z,99749.00
2022-09-23T11:22:43.715Z,99737.97
2022-09-23T11:25:20.852Z,99737.59
2022-09-23T11:28:05.651Z,99742.53
2022-09-23T11:30:41.206Z,99746.13
2022-09-23T11:33:27.692Z,99740.19
2022-09-23T11:35:59.336Z,99739.25
2022-09-23T11:38:31.767Z,99736.63
2022-09-23T11:41:01.859Z,99730.47
2022-09-23T11:43:37.393Z,99735.66
2022-09-23T11:46:15.220Z,99728.63
2022-09-23T11:48:46.766Z,99729.44
2022-09-23T11:51:16.936Z,99725.34
2022-09-23T11:53:47.875Z,99729.50
2022-09-23T11:56:31.974Z,99727.03
2022-09-23T11:59:07.531Z,99720.56
2022-09-23T12:01:45.396Z,99717.59
2022-09-23T12:04:21.126Z,99721.59
2022-09-23T12:06:52.160Z,99718.56
2022-09-23T12:09:40.996Z,99714.75
2022-09-23T12:12:23.926Z,99714.59
2022-09-23T12:15:02.151Z,99717.00
2022-09-23T12:17:59.178Z,99711.63
2022-09-23T12:20:42.167Z,99711.94
2022-09-23T12:23:28.240Z,99710.41
2022-09-23T12:25:56.967Z,99705.31
2022-09-23T12:28:28.164Z,99695.69
2022-09-23T12:30:58.850Z,99700.91
2022-09-23T12:33:28.806Z,99694.84
2022-09-23T12:36:02.054Z,99693.38
2022-09-23T12:38:48.671Z,99694.63
2022-09-23T12:41:23.775Z,99696.19
2022-09-23T12:43:52.273Z,99691.97
2022-09-23T12:46:21.465Z,99694.41
2022-09-23T12:48:59.631Z,99687.84
2022-09-23T12:51:29.661Z,99688.44
2022-09-23T12:54:15.268Z,99686.22
2022-09-23T12:57:05.411Z,99691.97
2022-09-23T12:59:47.903Z,99688.84
2022-09-23T13:02:31.454Z,99681.81
2022-09-23T13:05:09.793Z,99685.44
2022-09-23T13:07:46.037Z,99687.16
2022-09-23T13:10:17.335Z,99688.53
2022-09-23T13:12:48.153Z,99688.16
2022-09-23T13:15:27.630Z,99686.66
2022-09-23T13:18:44.901Z,99681.88
2022-09-23T13:21:19.312Z,99680.28
2022-09-23T13:24:20.056Z,99684.59
2022-09-23T13:27:03.116Z,99672.91
2022-09-23T13:29:36.218Z,99667.91
2022-09-23T13:32:04.931Z,99670.41
2022-09-23T13:34:34.218Z,99674.03
2022-09-23T13:37:11.623Z,99677.50
2022-09-23T13:39:38.101Z,99667.69
2022-09-23T13:42:13.719Z,99673.81
2022-09-23T13:44:40.661Z,99672.38
2022-09-23T13:47:13.628Z,99665.59
2022-09-23T13:49:41.598Z,99670.19
2022-09-23T13:52:23.871Z,99673.56
2022-09-23T13:54:50.685Z,99665.19
2022-09-23T13:57:25.867Z,99668.06
2022-09-23T13:59:52.631Z,99665.56
2022-09-23T14:02:19.435Z,99660.97
2022-09-23T14:04:47.383Z,99661.22
2022-09-23T14:07:23.478Z,99653.28
2022-09-23T14:09:52.064Z,99656.59
2022-09-23T14:12:18.723Z,99650.19
2022-09-23T14:14:58.920Z,99635.66
2022-09-23T14:17:25.592Z,99640.69
2022-09-23T14:19:53.468Z,99646.25
2022-09-23T14:22:24.414Z,99632.69
2022-09-23T14:24:51.607Z,99647.78
2022-09-23T14:27:35.242Z,99635.75
2022-09-23T14:30:03.395Z,99634.97
2022-09-23T14:32:30.654Z,99621.38
2022-09-23T14:35:19.509Z,99631.16
2022-09-23T14:37:49.250Z,99630.03
2022-09-23T14:40:27.322Z,99625.84
2022-09-23T14:42:58.812Z,99625.75
2022-09-23T14:45:28.332Z,99621.28
2022-09-23T14:47:59.055Z,99614.25
2022-09-23T14:50:29.390Z,99618.59
2022-09-23T14:52:56.109Z,99615.06
2022-09-23T14:55:27.492Z,99611.19
2022-09-23T14:58:02.128Z,99618.38
2022-09-23T15:00:29.018Z,99618.59
2022-09-23T15:02:59.654Z,99613.16
2022-09-23T15:05:41.067Z,99612.34
2022-09-23T15:08:10.642Z,99611.06
2022-09-23T15:10:39.568Z,99608.88
2022-09-23T15:13:09.161Z,99596.66
2022-09-23T15:15:36.228Z,99604.47
2022-09-23T15:18:05.320Z,99596.75
2022-09-23T15:20:34.080Z,99595.97
2022-09-23T15:23:00.596Z,99599.94
2022-09-23T15:25:32.287Z,99589.97
2022-09-23T15:28:02.102Z,99603.34
2022-09-23T15:30:29.787Z,99594.88
2022-09-23T15:32:56.393Z,99599.03
2022-09-23T15:35:24.990Z,99593.94
2022-09-23T15:37:55.910Z,99594.28
2022-09-23T15:40:24.014Z,99591.34
2022-09-23T15:42:54.044Z,99591.88
2022-09-23T15:45:26.238Z,99588.91
2022-09-23T15:47:52.973Z,99596.72
2022-09-23T15:50:19.761Z,99599.00
2022-09-23T15:52:46.253Z,99594.50
2022-09-23T15:55:19.474Z,99596.22
2022-09-23T15:57:45.954Z,99595.38
2022-09-23T16:00:15.809Z,99599.03
2022-09-23T16:02:44.041Z,99598.84
2022-09-23T16:05:35.734Z,99596.09
2022-09-23T16:08:08.526Z,99602.47
2022-09-23T16:10:37.619Z,99597.94
2022-09-23T16:13:11.580Z,99587.91
2022-09-23T16:15:38.473Z,99589.28
2022-09-23T16:18:10.284Z,99599.63
2022-09-23T16:20:39.117Z,99601.84
2022-09-23T16:23:07.431Z,99604.06
2022-09-23T16:25:38.539Z,99595.56
2022-09-23T16:28:05.674Z,99597.44
2022-09-23T16:30:34.255Z,99605.59
2022-09-23T16:33:00.807Z,99605.06
2022-09-23T16:35:28.881Z,99605.75
2022-09-23T16:37:55.556Z,99595.88
2022-09-23T16:40:23.669Z,99598.63
2022-09-23T16:42:55.438Z,99594.63
2022-09-23T16:45:22.127Z,99599.47
2022-09-23T16:47:50.370Z,99596.97
2022-09-23T16:50:21.776Z,99602.09
2022-09-23T16:52:52.630Z,99606.00
2022-09-23T16:55:19.178Z,99606.84
2022-09-23T16:57:45.772Z,99603.03
2022-09-23T17:00:15.593Z,99606.97
2022-09-23T17:02:42.077Z,99592.59
2022-09-23T17:05:09.050Z,99598.91
2022-09-23T17:07:35.590Z,99606.00
2022-09-23T17:10:02.504Z,99598.84
2022-09-23T17:12:32.116Z,99607.00
2022-09-23T17:14:58.671Z,99592.19
2022-09-23T17:17:26.614Z,99594.22
2022-09-23T17:19:53.192Z,99593.38
2022-09-23T17:22:23.288Z,99608.56
2022-09-23T17:24:50.125Z,99595.94
2022-09-23T17:27:16.728Z,99592.09
2022-09-23T17:29:43.259Z,99572.66
2022-09-23T17:32:09.822Z,99579.03
2022-09-23T17:34:37.779Z,99582.28
2022-09-23T17:37:04.541Z,99563.53
2022-09-23T17:39:31.090Z,99575.72
2022-09-23T17:41:57.619Z,99575.72
2022-09-23T17:44:24.517Z,99581.78
2022-09-23T17:46:51.052Z,99584.00
2022-09-23T17:49:17.800Z,99581.00
2022-09-23T17:51:45.632Z,99579.25
2022-09-23T17:54:12.198Z,99571.16
2022-09-23T17:56:38.777Z,99576.47
2022-09-23T17:59:05.434Z,99582.84
2022-09-23T18:01:32.272Z,99580.41
2022-09-23T18:04:00.597Z,99573.78
2022-09-23T18:06:29.234Z,99578.97
2022-09-23T18:09:21.400Z,99582.34
2022-09-23T18:11:48.251Z,99563.81
2022-09-23T18:14:16.886Z,99573.06
2022-09-23T18:16:45.072Z,99560.38
2022-09-23T18:19:13.775Z,99559.97
2022-09-23T18:21:43.320Z,99567.06
2022-09-23T18:26:58.818Z,99554.13
2022-09-23T18:29:25.454Z,99561.66
2022-09-23T18:31:52.090Z,99565.75
2022-09-23T18:34:19.049Z,99570.63
2022-09-23T18:36:45.677Z,99576.13
2022-09-23T18:39:12.806Z,99557.69
2022-09-23T18:41:39.760Z,99571.03
2022-09-23T18:44:08.613Z,99591.13
2022-09-23T18:46:35.460Z,99583.16
2022-09-23T18:49:02.184Z,99561.66
2022-09-23T18:51:29.723Z,99563.81
2022-09-23T18:53:58.844Z,99581.00
2022-09-23T18:56:27.402Z,99587.66
2022-09-23T18:58:55.631Z,99563.50
2022-09-23T19:01:24.119Z,99561.38
2022-09-23T19:03:54.635Z,99567.03
2022-09-23T19:06:23.598Z,99576.88
2022-09-23T19:08:51.338Z,99575.53
2022-09-23T19:11:18.213Z,99584.25
2022-09-23T19:13:45.476Z,99570.94
2022-09-23T19:16:13.997Z,99583.41
2022-09-23T19:18:43.911Z,99585.88
2022-09-23T19:21:11.976Z,99594.84
2022-09-23T19:23:39.979Z,99583.84
2022-09-23T19:26:08.342Z,99575.19
2022-09-23T19:28:35.100Z,99573.72
2022-09-23T19:31:08.716Z,99584.31
2022-09-23T19:33:35.358Z,99589.50
2022-09-23T19:36:03.703Z,99599.22
2022-09-23T19:38:30.512Z,99570.56
2022-09-23T19:40:57.194Z,99585.63
2022-09-23T19:43:28.609Z,99581.56
2022-09-23T19:45:55.406Z,99585.91
2022-09-23T19:48:22.016Z,99566.81
2022-09-23T19:50:48.920Z,99580.41
2022-09-23T19:53:16.990Z,99578.38
2022-09-23T19:55:43.634Z,99574.03
2022-09-23T19:58:10.277Z,99565.94
2022-09-23T20:00:36.939Z,99562.47
2022-09-23T20:03:03.753Z,99565.94
2022-09-23T20:08:54.815Z,99562.47
2022-09-23T20:11:27.629Z,99561.00
2022-09-23T20:13:56.479Z,99569.25
2022-09-23T20:16:23.108Z,99538.13
2022-09-23T20:18:52.277Z,99540.44
2022-09-23T20:21:18.929Z,99541.47
2022-09-23T20:23:45.544Z,99533.78
2022-09-23T20:26:16.716Z,99540.28
2022-09-23T20:28:43.384Z,99537.28
2022-09-23T20:31:13.339Z,99542.91
2022-09-23T20:33:40.015Z,99531.75
2022-09-23T20:36:06.817Z,99557.97
2022-09-23T20:38:33.789Z,99549.72
2022-09-23T20:41:05.329Z,99537.22
2022-09-23T20:43:33.845Z,99540.59
2022-09-23T20:46:04.507Z,99541.72
2022-09-23T20:48:31.525Z,99552.59
2022-09-23T20:51:01.275Z,99527.81
2022-09-23T20:53:27.931Z,99529.44
2022-09-23T20:55:56.722Z,99546.94
2022-09-23T20:59:06.784Z,99545.75
2022-09-23T21:01:35.531Z,99543.91
2022-09-23T21:04:02.782Z,99546.38
2022-09-23T21:06:29.435Z,99535.97
2022-09-23T21:08:56.039Z,99518.28
2022-09-23T21:11:22.830Z,99548.69
2022-09-23T21:13:50.988Z,99532.91
2022-09-23T21:16:19.615Z,99526.53
2022-09-23T21:18:48.203Z,99517.88
2022-09-23T21:21:15.022Z,99533.22
2022-09-23T21:23:42.566Z,99530.00
2022-09-23T21:26:10.753Z,99521.75
2022-09-23T21:28:39.003Z,99524.66
2022-09-23T21:31:08.464Z,99517.41
2022-09-23T21:33:35.329Z,99538.41
2022-09-23T21:36:05.209Z,99524.19
2022-09-23T21:38:34.262Z,99530.28
2022-09-23T21:41:02.692Z,99509.75
2022-09-23T21:43:31.838Z,99527.13
2022-09-23T21:45:59.875Z,99524.66
2022-09-23T21:48:30.911Z,99513.84
2022-09-23T21:51:12.853Z,99517.16
2022-09-23T21:54:23.139Z,99530.16
2022-09-23T21:56:49.736Z,99524.38
2022-09-23T21:59:16.342Z,99526.72
2022-09-23T22:01:43.457Z,99516.72
2022-09-23T22:07:35.647Z,99537.28
2022-09-23T22:10:02.305Z,99534.09
2022-09-23T22:12:28.877Z,99526.44
2022-09-23T22:14:56.009Z,99515.19
2022-09-23T22:17:22.575Z,99522.25
2022-09-23T22:19:49.710Z,99523.41
2022-09-23T22:22:17.977Z,99526.59
2022-09-23T22:24:46.859Z,99526.31
2022-09-23T22:27:15.730Z,99519.66
2022-09-23T22:29:42.346Z,99519.25
2022-09-23T22:32:11.565Z,99513.59
2022-09-23T22:34:49.425Z,99505.06
2022-09-23T22:37:20.122Z,99508.13
2022-09-23T22:39:48.190Z,99521.41
2022-09-23T22:42:14.823Z,99512.75
2022-09-23T22:44:41.438Z,99507.56
2022-09-23T22:47:08.467Z,99501.84
2022-09-23T22:49:35.210Z,99501.00
2022-09-23T22:52:02.736Z,99518.66
2022-09-23T22:54:33.602Z,99527.75
2022-09-23T22:57:03.781Z,99508.78
2022-09-23T22:59:31.548Z,99521.38
2022-09-23T23:02:00.053Z,99529.22
2022-09-23T23:07:44.580Z,99523.56
2022-09-23T23:10:11.184Z,99512.84
2022-09-23T23:12:58.569Z,99512.84
2022-09-23T23:15:25.210Z,99517.06
2022-09-23T23:17:52.609Z,99533.09
2022-09-23T23:20:19.234Z,99521.69
2022-09-23T23:22:45.810Z,99525.56
2022-09-23T23:25:12.417Z,99514.31
2022-09-23T23:27:41.899Z,99506.25
2022-09-23T23:30:11.168Z,99504.66
2022-09-23T23:32:38.039Z,99507.41
2022-09-23T23:35:05.548Z,99491.91
2022-09-23T23:37:32.134Z,99509.56
2022-09-23T23:39:58.884Z,99486.84
2022-09-23T23:42:25.451Z,99493.38
2022-09-23T23:48:15.030Z,99486.59
2022-09-23T23:50:41.800Z,99488.94
2022-09-23T23:53:08.422Z,99485.03
2022-09-23T23:55:37.424Z,99497.16
2022-09-23T23:58:04.040Z,99488.94
